Time;durP1;ratioP1;P1;durP2;ratioP2;P2;SDS_P1;SDS_P2;PMS_P1;PMS_P2;Temp;Humidity;BMP_temperature;BMP_pressure;BME280_temperature;BME280_humidity;BME280_pressure;Samples;Min_cycle;Max_cycle;Signal;HPM_P1;HPM_P2
2022/01/25 00:10:41;;;;;;;23.83;16.90;;;4.90;99.90;;;;;;4974630;28;20191;-57
2022/01/25 00:24:16;;;;;;;21.23;14.98;;;4.90;99.90;;;;;;4974205;28;20235;-58
2022/01/25 00:24:27;;;;;;;21.38;16.38;;;4.80;99.90;;;;;;4975526;28;20231;-57
2022/01/25 00:27:11;;;;;;;22.00;15.75;;;4.90;99.90;;;;;;4978502;28;20239;-57
2022/01/25 00:29:59;;;;;;;25.98;16.92;;;4.80;99.90;;;;;;4979053;28;20247;-57
2022/01/25 00:32:26;;;;;;;25.00;15.75;;;4.80;99.90;;;;;;4978106;28;20199;-57
2022/01/25 00:34:53;;;;;;;20.98;14.85;;;4.80;99.90;;;;;;4978532;28;20242;-57
2022/01/25 00:37:21;;;;;;;23.30;15.27;;;4.80;99.90;;;;;;4977876;28;20240;-57
2022/01/25 00:39:48;;;;;;;22.15;16.23;;;4.80;99.90;;;;;;4978414;28;20235;-57
2022/01/25 00:42:15;;;;;;;22.63;15.63;;;4.90;99.90;;;;;;4978290;28;20570;-57
2022/01/25 00:44:47;;;;;;;26.35;17.33;;;4.90;99.90;;;;;;4978326;28;20255;-57
2022/01/25 00:47:16;;;;;;;22.50;15.60;;;4.90;99.90;;;;;;4978191;28;20712;-57
2022/01/25 00:49:44;;;;;;;24.48;16.27;;;4.90;99.90;;;;;;4978164;28;20213;-58
2022/01/25 00:52:22;;;;;;;22.77;14.95;;;4.90;99.90;;;;;;4977697;28;20680;-58
2022/01/25 00:54:51;;;;;;;22.17;15.65;;;4.90;99.90;;;;;;4977699;28;20247;-58
2022/01/25 00:57:18;;;;;;;23.00;14.50;;;4.90;99.90;;;;;;4977902;28;20224;-58
2022/01/25 00:59:47;;;;;;;21.42;15.75;;;4.90;99.90;;;;;;4977601;28;20600;-58
2022/01/25 01:02:16;;;;;;;22.48;15.52;;;4.90;99.90;;;;;;4977825;28;20215;-58
2022/01/25 01:04:43;;;;;;;22.13;15.00;;;4.80;99.90;;;;;;4977860;28;20223;-58
2022/01/25 01:07:13;;;;;;;23.17;15.63;;;4.80;99.90;;;;;;4977378;28;20228;-58
2022/01/25 01:09:43;;;;;;;27.02;17.52;;;4.80;99.90;;;;;;4977518;28;20632;-58
2022/01/25 01:12:16;;;;;;;20.83;15.63;;;4.80;99.90;;;;;;4977355;28;20629;-58
2022/01/25 01:15:04;;;;;;;21.83;15.27;;;4.80;99.90;;;;;;4977610;28;20209;-57
2022/01/25 01:31:23;;;;;;;21.85;15.48;;;4.80;99.90;;;;;;4977464;28;20187;-58
2022/01/25 01:40:03;;;;;;;24.65;15.80;;;4.90;99.90;;;;;;4917973;29;20250;-57
2022/01/25 01:42:53;;;;;;;25.38;14.68;;;4.90;99.90;;;;;;4917508;29;20623;-58
2022/01/25 01:45:37;;;;;;;23.35;16.15;;;4.90;99.90;;;;;;4965581;28;20747;-57
2022/01/25 01:48:07;;;;;;;25.98;15.27;;;4.90;99.90;;;;;;4977026;28;20247;-57
2022/01/25 01:50:38;;;;;;;22.63;15.13;;;4.90;99.90;;;;;;4977783;28;20275;-57
2022/01/25 01:53:07;;;;;;;27.17;17.33;;;4.90;99.90;;;;;;4976962;28;20195;-57
2022/01/25 01:55:36;;;;;;;25.10;17.10;;;4.90;99.90;;;;;;4976503;28;20208;-57
2022/01/25 01:58:04;;;;;;;22.80;16.08;;;4.90;99.90;;;;;;4976720;28;20228;-57
2022/01/25 02:00:34;;;;;;;25.60;16.00;;;4.90;99.90;;;;;;4976725;28;20274;-57
2022/01/25 02:03:02;;;;;;;22.92;14.88;;;4.80;99.90;;;;;;4976438;28;20200;-57
2022/01/25 02:05:30;;;;;;;29.33;17.30;;;4.90;99.90;;;;;;4976632;28;20205;-57
2022/01/25 02:08:00;;;;;;;23.85;16.70;;;4.90;99.90;;;;;;4976191;28;20227;-57
2022/01/25 02:10:27;;;;;;;26.52;16.58;;;4.90;99.90;;;;;;4976580;28;20636;-57
2022/01/25 02:12:56;;;;;;;26.45;17.70;;;4.90;99.90;;;;;;4976407;28;20216;-57
2022/01/25 02:15:25;;;;;;;23.88;16.77;;;4.80;99.90;;;;;;4976525;28;20228;-57
2022/01/25 02:23:23;;;;;;;23.83;14.80;;;4.90;99.90;;;;;;4976339;28;20203;-57
2022/01/25 02:25:53;;;;;;;26.15;16.60;;;4.90;99.90;;;;;;4976333;28;20185;-58
2022/01/25 02:28:21;;;;;;;27.95;18.25;;;4.90;99.90;;;;;;4976576;28;20231;-57
2022/01/25 02:30:49;;;;;;;23.60;15.70;;;4.90;99.90;;;;;;4975917;28;20208;-57
2022/01/25 02:33:16;;;;;;;29.02;17.00;;;4.90;99.90;;;;;;4975864;28;20211;-57
2022/01/25 02:35:44;;;;;;;24.85;16.63;;;4.90;99.90;;;;;;4976165;28;20205;-57
2022/01/25 02:38:13;;;;;;;22.73;16.48;;;4.90;99.90;;;;;;4976220;28;20240;-57
2022/01/25 02:40:41;;;;;;;24.73;16.52;;;4.90;99.90;;;;;;4975596;28;20211;-57
2022/01/25 02:43:08;;;;;;;27.23;17.40;;;4.90;99.90;;;;;;4975706;28;20207;-57
2022/01/25 02:45:36;;;;;;;24.98;16.00;;;4.90;99.90;;;;;;4975603;28;20204;-57
2022/01/25 02:50:51;;;;;;;24.90;17.15;;;4.90;99.90;;;;;;4975672;28;20231;-58
2022/01/25 02:53:18;;;;;;;25.48;16.23;;;4.90;99.90;;;;;;4975801;28;20227;-58
2022/01/25 02:55:45;;;;;;;26.42;17.55;;;4.90;99.90;;;;;;4975338;28;20624;-58
2022/01/25 02:58:12;;;;;;;23.05;16.30;;;4.90;99.90;;;;;;4975680;28;20334;-58
2022/01/25 03:00:40;;;;;;;23.70;16.15;;;4.90;99.90;;;;;;4975486;28;20681;-58
2022/01/25 03:03:07;;;;;;;27.45;17.15;;;4.90;99.90;;;;;;4976086;28;20227;-58
2022/01/25 03:05:34;;;;;;;25.15;16.52;;;4.90;99.90;;;;;;4976667;28;20208;-58
2022/01/25 03:08:02;;;;;;;26.75;16.35;;;4.90;99.90;;;;;;4975501;28;20231;-58
2022/01/25 03:10:37;;;;;;;29.00;18.15;;;4.90;99.90;;;;;;4975623;28;20227;-58
2022/01/25 03:13:09;;;;;;;24.13;15.98;;;4.90;99.90;;;;;;4976382;28;20250;-59
2022/01/25 03:15:53;;;;;;;27.92;18.00;;;4.90;99.90;;;;;;4976262;28;20204;-58
2022/01/25 03:24:05;;;;;;;27.05;17.80;;;4.90;99.90;;;;;;4940139;28;20189;-58
2022/01/25 03:26:35;;;;;;;26.80;18.13;;;4.90;99.90;;;;;;4975172;28;20231;-57
2022/01/25 03:29:03;;;;;;;28.90;18.13;;;4.90;99.90;;;;;;4975213;28;20303;-56
2022/01/25 03:31:30;;;;;;;33.33;20.60;;;4.80;99.90;;;;;;4975348;28;20688;-57
2022/01/25 03:33:58;;;;;;;31.50;18.23;;;4.80;99.90;;;;;;4975058;28;20224;-57
2022/01/25 03:36:25;;;;;;;36.33;21.63;;;4.80;99.90;;;;;;4974809;28;20228;-57
2022/01/25 03:38:53;;;;;;;31.08;20.08;;;4.80;99.90;;;;;;4974808;28;20200;-57
2022/01/25 03:41:23;;;;;;;32.83;21.80;;;4.80;99.90;;;;;;4974717;28;20211;-57
2022/01/25 03:43:55;;;;;;;35.75;22.42;;;4.80;99.90;;;;;;4974977;28;20208;-57
2022/01/25 03:46:32;;;;;;;35.22;23.05;;;4.70;99.90;;;;;;4974961;28;20225;-58
2022/01/25 03:51:44;;;;;;;38.50;23.00;;;4.70;99.90;;;;;;4975047;28;20263;-57
2022/01/25 03:54:11;;;;;;;33.97;21.85;;;4.70;99.90;;;;;;4974439;28;20224;-57
2022/01/25 03:56:40;;;;;;;35.47;21.92;;;4.70;99.90;;;;;;4974794;28;20231;-58
2022/01/25 03:59:08;;;;;;;38.83;24.50;;;4.70;99.90;;;;;;4974534;28;20211;-57
2022/01/25 04:01:36;;;;;;;37.10;24.00;;;4.70;99.90;;;;;;4974910;28;20580;-57
2022/01/25 04:04:07;;;;;;;42.05;24.90;;;4.70;99.90;;;;;;4974743;28;20208;-58
2022/01/25 04:09:13;;;;;;;42.08;24.05;;;4.60;99.90;;;;;;5091653;27;20606;-56
2022/01/25 04:11:40;;;;;;;43.35;25.52;;;4.60;99.90;;;;;;5090945;28;20290;-57
2022/01/25 04:14:07;;;;;;;42.50;26.23;;;4.60;99.90;;;;;;5090763;28;20215;-57
2022/01/25 04:16:38;;;;;;;41.15;25.48;;;4.60;99.90;;;;;;5090548;28;20228;-57
2022/01/25 04:19:09;;;;;;;42.33;23.15;;;4.60;99.90;;;;;;5091270;28;20208;-57
2022/01/25 04:25:01;;;;;;;43.63;23.98;;;4.60;99.90;;;;;;4992717;28;20246;-61
2022/01/25 04:27:28;;;;;;;40.35;23.27;;;4.60;99.90;;;;;;5030679;28;20253;-62
2022/01/25 04:29:55;;;;;;;44.28;26.42;;;4.60;99.90;;;;;;5031352;28;20202;-62
2022/01/25 04:32:32;;;;;;;41.35;25.40;;;4.60;99.90;;;;;;5030379;28;20225;-62
2022/01/25 04:35:11;;;;;;;46.63;26.45;;;4.60;99.90;;;;;;5030589;28;20646;-62
2022/01/25 04:49:05;;;;;;;39.30;23.35;;;4.60;99.90;;;;;;5030763;28;20210;-62
2022/01/25 04:51:53;;;;;;;40.80;25.70;;;4.50;99.90;;;;;;5030033;28;20222;-63
2022/01/25 04:57:29;;;;;;;41.28;27.48;;;4.50;99.90;;;;;;5015798;28;20244;-62
2022/01/25 05:00:03;;;;;;;43.88;24.73;;;4.50;99.90;;;;;;5030936;28;20195;-61
2022/01/25 05:02:41;;;;;;;40.40;24.73;;;4.50;99.90;;;;;;5030051;28;20714;-62
2022/01/25 05:05:13;;;;;;;44.80;26.27;;;4.50;99.90;;;;;;5030968;28;20269;-62
2022/01/25 05:07:47;;;;;;;38.40;24.50;;;4.50;99.90;;;;;;5032156;28;20234;-62
2022/01/25 05:10:15;;;;;;;44.83;26.73;;;4.50;99.90;;;;;;5031352;28;20186;-62
2022/01/25 05:12:47;;;;;;;40.80;26.02;;;4.40;99.90;;;;;;5031826;28;20222;-62
2022/01/25 05:15:27;;;;;;;42.97;24.33;;;4.40;99.90;;;;;;5033448;28;20202;-62
2022/01/25 05:18:12;;;;;;;40.88;24.77;;;4.40;99.90;;;;;;5032500;28;20662;-62
2022/01/25 05:23:24;;;;;;;42.33;25.50;;;;;;;;;;5016373;28;20292;-61
2022/01/25 05:25:51;;;;;;;39.60;24.00;;;;;;;;;;5016734;28;20207;-62
2022/01/25 05:28:20;;;;;;;40.63;22.98;;;;;;;;;;5016628;28;20686;-62
2022/01/25 05:30:47;;;;;;;42.97;24.75;;;;;;;;;;5017311;28;20203;-60
2022/01/25 05:33:15;;;;;;;45.35;26.63;;;;;;;;;;5019995;28;20230;-64
2022/01/25 05:35:42;;;;;;;45.40;24.83;;;;;;;;;;5020425;28;20203;-61
2022/01/25 05:38:10;;;;;;;40.55;24.02;;;;;;;;;;5019307;28;20210;-62
2022/01/25 05:40:44;;;;;;;43.17;24.95;;;;;;;;;;5018848;28;20210;-63
2022/01/25 05:46:02;;;;;;;42.35;24.70;;;;;;;;;;5019189;28;20706;-62
2022/01/25 05:48:30;;;;;;;42.13;24.70;;;;;;;;;;5019086;28;20211;-62
2022/01/25 05:50:58;;;;;;;39.95;24.25;;;;;;;;;;5018647;28;20210;-61
2022/01/25 05:53:25;;;;;;;47.03;25.67;;;;;;;;;;5018141;28;20590;-62
2022/01/25 05:55:52;;;;;;;38.10;22.98;;;;;;;;;;5017830;28;20207;-62
2022/01/25 05:58:20;;;;;;;43.88;25.65;;;;;;;;;;5017822;28;20218;-62
2022/01/25 06:00:47;;;;;;;40.42;23.63;;;;;;;;;;5018896;28;20211;-62
2022/01/25 06:03:16;;;;;;;39.35;21.73;;;;;;;;;;5022295;28;20235;-62
2022/01/25 06:05:44;;;;;;;36.55;22.58;;;;;;;;;;5022648;28;20203;-60
2022/01/25 06:08:12;;;;;;;41.25;24.02;;;;;;;;;;5023144;28;20222;-60
2022/01/25 06:10:39;;;;;;;39.85;22.10;;;;;;;;;;5021509;28;20210;-61
2022/01/25 06:13:07;;;;;;;40.72;21.67;;;;;;;;;;5020753;28;20219;-60
2022/01/25 06:15:34;;;;;;;37.97;20.15;;;;;;;;;;5020902;28;20202;-61
2022/01/25 06:18:01;;;;;;;38.97;21.63;;;;;;;;;;5020095;28;20211;-61
2022/01/25 06:20:30;;;;;;;32.72;21.63;;;;;;;;;;5020989;28;20551;-62
2022/01/25 06:22:58;;;;;;;31.13;18.40;;;;;;;;;;5019278;28;20235;-61
2022/01/25 06:25:25;;;;;;;40.03;21.83;;;;;;;;;;5020948;28;20260;-60
2022/01/25 06:27:52;;;;;;;32.22;20.00;;;;;;;;;;5020394;28;20222;-61
2022/01/25 06:30:20;;;;;;;36.13;21.77;;;;;;;;;;5023341;28;20238;-61
2022/01/25 06:32:48;;;;;;;34.20;20.05;;;;;;;;;;5022884;28;20609;-61
2022/01/25 06:35:17;;;;;;;34.95;20.48;;;;;;;;;;5020369;28;20282;-61
2022/01/25 06:37:46;;;;;;;34.92;19.73;;;;;;;;;;5020895;28;20195;-61
2022/01/25 06:40:16;;;;;;;36.30;21.75;;;;;;;;;;5022967;28;20612;-61
2022/01/25 06:42:43;;;;;;;31.45;19.55;;;;;;;;;;5024655;28;20223;-62
2022/01/25 06:45:14;;;;;;;31.20;19.27;;;;;;;;;;5021960;28;20662;-61
2022/01/25 06:47:41;;;;;;;35.97;19.25;;;;;;;;;;5022231;28;20254;-61
2022/01/25 06:50:09;;;;;;;33.10;17.30;;;;;;;;;;5023181;28;20659;-61
2022/01/25 06:52:38;;;;;;;33.58;18.95;;;;;;;;;;5022635;28;20225;-61
2022/01/25 06:55:09;;;;;;;35.95;17.67;;;;;;;;;;5025566;28;20206;-62
2022/01/25 06:57:36;;;;;;;34.10;19.63;;;;;;;;;;5021913;28;20227;-60
2022/01/25 07:00:05;;;;;;;36.38;19.75;;;;;;;;;;5015090;28;20575;-62
2022/01/25 07:02:33;;;;;;;29.65;17.80;;;;;;;;;;5014895;28;20269;-62
2022/01/25 07:05:01;;;;;;;35.13;18.67;;;;;;;;;;5015519;28;20265;-62
2022/01/25 07:07:29;;;;;;;32.58;19.08;;;;;;;;;;5015034;28;20222;-62
2022/01/25 07:09:56;;;;;;;31.63;17.27;;;;;;;;;;5014669;28;20222;-63
2022/01/25 07:12:25;;;;;;;31.63;19.52;;;;;;;;;;5014767;28;20257;-62
2022/01/25 07:14:52;;;;;;;27.52;16.00;;;;;;;;;;5014542;28;20207;-62
2022/01/25 07:17:19;;;;;;;33.67;17.80;;;;;;;;;;5014103;28;20203;-62
2022/01/25 07:19:48;;;;;;;38.00;20.92;;;;;;;;;;5029059;28;20203;-61
2022/01/25 07:22:15;;;;;;;35.67;20.17;;;;;;;;;;5030079;28;20235;-63
2022/01/25 07:24:42;;;;;;;30.85;18.23;;;;;;;;;;5029359;28;20211;-62
2022/01/25 07:27:10;;;;;;;30.00;18.58;;;;;;;;;;5029086;28;20207;-62
2022/01/25 07:29:38;;;;;;;35.22;18.50;;;;;;;;;;5027374;28;20223;-62
2022/01/25 07:32:06;;;;;;;37.55;19.90;;;;;;;;;;5026344;28;20242;-62
2022/01/25 07:34:34;;;;;;;32.95;18.08;;;;;;;;;;5021676;28;20219;-62
2022/01/25 07:37:01;;;;;;;31.60;19.38;;;;;;;;;;5021424;28;20203;-62
2022/01/25 07:39:29;;;;;;;33.20;19.20;;;;;;;;;;5022431;28;20202;-62
2022/01/25 07:41:58;;;;;;;35.13;19.73;;;;;;;;;;5017890;28;20294;-62
2022/01/25 07:44:29;;;;;;;37.78;21.20;;;;;;;;;;5018231;28;20210;-63
2022/01/25 07:47:00;;;;;;;36.58;20.00;;;;;;;;;;5015631;28;20187;-63
2022/01/25 07:49:28;;;;;;;36.35;21.27;;;;;;;;;;5015693;28;20294;-63
2022/01/25 07:51:55;;;;;;;31.98;19.35;;;;;;;;;;5015422;28;20591;-62
2022/01/25 07:54:22;;;;;;;40.58;21.80;;;;;;;;;;5014687;28;20210;-62
2022/01/25 07:56:50;;;;;;;37.13;19.67;;;;;;;;;;5014975;28;20211;-63
2022/01/25 07:59:17;;;;;;;32.13;19.98;;;;;;;;;;5014038;28;20195;-63
2022/01/25 08:01:44;;;;;;;35.45;19.80;;;;;;;;;;5014517;28;20199;-61
2022/01/25 08:04:15;;;;;;;37.10;21.95;;;;;;;;;;5014001;28;20643;-62
2022/01/25 08:06:42;;;;;;;37.83;22.42;;;;;;;;;;5013936;28;20207;-63
2022/01/25 08:09:11;;;;;;;36.33;21.00;;;;;;;;;;5014142;28;20707;-63
2022/01/25 08:11:38;;;;;;;38.05;21.25;;;;;;;;;;5014576;28;20210;-61
2022/01/25 08:14:13;;;;;;;32.53;20.45;;;;;;;;;;5014749;28;20214;-62
2022/01/25 08:16:40;;;;;;;32.35;19.58;;;;;;;;;;5014186;28;20187;-62
2022/01/25 08:19:08;;;;;;;29.90;19.58;;;;;;;;;;5014649;28;20210;-62
2022/01/25 08:21:37;;;;;;;32.85;18.98;;;;;;;;;;5014457;28;20206;-63
2022/01/25 08:24:05;;;;;;;40.28;21.83;;;;;;;;;;5014738;28;20191;-62
2022/01/25 08:26:32;;;;;;;35.88;19.30;;;;;;;;;;5015175;28;20302;-62
2022/01/25 08:29:00;;;;;;;43.25;20.08;;;;;;;;;;5015550;28;20223;-62
2022/01/25 08:31:27;;;;;;;32.28;20.10;;;;;;;;;;5017796;28;20203;-62
2022/01/25 08:33:54;;;;;;;34.05;21.02;;;;;;;;;;5016368;28;20207;-62
2022/01/25 08:36:22;;;;;;;37.65;20.15;;;;;;;;;;5015374;28;20199;-60
2022/01/25 08:38:50;;;;;;;30.00;18.55;;;;;;;;;;5015045;28;20195;-62
2022/01/25 08:41:18;;;;;;;33.80;18.25;;;;;;;;;;5014649;28;20667;-62
2022/01/25 08:43:45;;;;;;;31.02;18.13;;;;;;;;;;5014985;28;20242;-63
2022/01/25 08:46:13;;;;;;;33.70;20.25;;;;;;;;;;5018601;28;20214;-61
2022/01/25 08:48:40;;;;;;;31.70;19.77;;;;;;;;;;5018029;28;20226;-62
2022/01/25 08:51:08;;;;;;;35.70;19.08;;;;;;;;;;5013921;28;20203;-62
2022/01/25 08:53:36;;;;;;;34.92;18.23;;;;;;;;;;5014038;28;20231;-63
2022/01/25 08:56:05;;;;;;;38.10;19.02;;;;;;;;;;5017176;28;20234;-62
2022/01/25 08:58:33;;;;;;;33.40;19.60;;;;;;;;;;5017704;28;20314;-62
2022/01/25 09:01:00;;;;;;;31.50;19.65;;;;;;;;;;5017263;28;20207;-63
2022/01/25 09:03:27;;;;;;;37.97;19.20;;;;;;;;;;5017706;28;20218;-62
2022/01/25 09:05:55;;;;;;;33.60;19.10;;;;;;;;;;5018064;28;20207;-62
2022/01/25 09:08:23;;;;;;;35.35;20.00;;;;;;;;;;5018549;28;20211;-62
2022/01/25 09:10:57;;;;;;;38.03;21.27;;;;;;;;;;5017238;28;20213;-63
2022/01/25 09:13:26;;;;;;;38.75;22.23;;;;;;;;;;5017159;28;20784;-62
2022/01/25 09:15:54;;;;;;;42.47;23.33;;;;;;;;;;5017440;28;20210;-62
2022/01/25 09:18:23;;;;;;;38.72;22.15;;;;;;;;;;5018064;28;20199;-62
2022/01/25 09:20:50;;;;;;;38.75;21.27;;;;;;;;;;5018324;28;20202;-62
2022/01/25 09:23:19;;;;;;;35.83;21.67;;;;;;;;;;5016904;28;20238;-63
2022/01/25 09:25:47;;;;;;;37.97;22.23;;;;;;;;;;5016818;28;20207;-62
2022/01/25 09:28:15;;;;;;;42.17;22.98;;;;;;;;;;5016696;28;20230;-64
2022/01/25 09:30:44;;;;;;;38.95;21.40;;;;;;;;;;5016542;28;20246;-63
2022/01/25 09:33:12;;;;;;;39.08;21.75;;;;;;;;;;5016217;28;20234;-62
2022/01/25 09:35:39;;;;;;;43.33;23.20;;;;;;;;;;5016361;28;20206;-63
2022/01/25 09:38:07;;;;;;;37.35;21.80;;;;;;;;;;5016131;28;20203;-63
2022/01/25 09:40:34;;;;;;;38.22;21.83;;;;;;;;;;5016146;28;20203;-63
2022/01/25 09:43:02;;;;;;;39.53;23.55;;;;;;;;;;5015861;28;20227;-62
2022/01/25 09:45:30;;;;;;;42.60;22.65;;;;;;;;;;5016199;28;20207;-62
2022/01/25 09:47:58;;;;;;;45.15;24.63;;;;;;;;;;5031201;28;20213;-63
2022/01/25 09:50:26;;;;;;;40.40;22.88;;;;;;;;;;5027295;28;20588;-63
2022/01/25 09:52:54;;;;;;;41.38;23.63;;;;;;;;;;5025195;28;20223;-62
2022/01/25 09:55:22;;;;;;;40.97;23.98;;;;;;;;;;5024483;28;20199;-62
2022/01/25 09:57:50;;;;;;;39.63;22.25;;;;;;;;;;5023549;28;20274;-62
2022/01/25 10:00:19;;;;;;;48.03;25.77;;;;;;;;;;5020631;28;20199;-63
2022/01/25 10:02:50;;;;;;;52.17;28.13;;;;;;;;;;5020685;28;20699;-61
2022/01/25 10:05:24;;;;;;;46.55;25.52;;;;;;;;;;5018897;28;20210;-62
2022/01/25 10:07:58;;;;;;;36.72;22.08;;;;;;;;;;5016644;28;20252;-62
2022/01/25 10:10:26;;;;;;;40.00;22.90;;;;;;;;;;5016324;28;20597;-62
2022/01/25 10:12:55;;;;;;;47.65;24.23;;;;;;;;;;5016152;28;20223;-62
2022/01/25 10:15:26;;;;;;;43.30;23.27;;;;;;;;;;5015420;28;20210;-62
2022/01/25 10:17:54;;;;;;;40.70;22.60;;;;;;;;;;5015847;28;20192;-62
2022/01/25 10:20:30;;;;;;;46.45;23.83;;;;;;;;;;5015639;28;20199;-63
2022/01/25 10:23:00;;;;;;;42.10;23.92;;;;;;;;;;5046436;22;20225;-58
2022/01/25 10:25:35;;;;;;;45.08;22.45;;;;;;;;;;5034237;28;20271;-57
2022/01/25 10:28:04;;;;;;;50.63;24.67;;;;;;;;;;5034594;28;20189;-57
2022/01/25 10:30:33;;;;;;;46.00;23.52;;;;;;;;;;5034587;28;20565;-57
2022/01/25 10:33:03;;;;;;;42.45;22.45;;;;;;;;;;5034402;28;20229;-55
2022/01/25 10:35:32;;;;;;;41.85;21.48;;;;;;;;;;5034679;28;20285;-56
2022/01/25 10:37:59;;;;;;;46.65;24.60;;;;;;;;;;5034635;28;20198;-56
2022/01/25 10:40:36;;;;;;;43.13;22.67;;;;;;;;;;5034142;28;20195;-56
2022/01/25 10:43:06;;;;;;;39.78;22.20;;;;;;;;;;5034265;28;20713;-58
2022/01/25 10:45:33;;;;;;;41.67;22.23;;;;;;;;;;5034277;28;20312;-57
2022/01/25 10:48:00;;;;;;;45.63;25.30;;;;;;;;;;5034648;28;20202;-56
2022/01/25 10:50:31;;;;;;;43.88;23.65;;;;;;;;;;5034361;28;20227;-56
2022/01/25 10:53:08;;;;;;;50.03;24.02;;;;;;;;;;5034474;28;20222;-56
2022/01/25 10:55:39;;;;;;;40.65;22.38;;;;;;;;;;5034457;28;20190;-57
2022/01/25 10:58:07;;;;;;;39.75;21.48;;;;;;;;;;5034400;28;20206;-56
2022/01/25 11:00:36;;;;;;;45.40;23.52;;;;;;;;;;5033824;28;20264;-57
2022/01/25 11:03:04;;;;;;;41.30;22.60;;;;;;;;;;5033816;28;20254;-57
2022/01/25 11:05:32;;;;;;;39.97;22.65;;;;;;;;;;5033522;28;20208;-57
2022/01/25 11:08:11;;;;;;;39.42;21.60;;;;;;;;;;5033836;28;20206;-56
2022/01/25 11:10:47;;;;;;;43.55;24.42;;;;;;;;;;5033754;28;20271;-57
2022/01/25 11:13:34;;;;;;;43.30;22.63;;;;;;;;;;5033884;28;20309;-56
2022/01/25 11:16:02;;;;;;;39.97;23.73;;;;;;;;;;5033595;28;20256;-57
2022/01/25 11:18:31;;;;;;;42.25;23.20;;;;;;;;;;5033642;28;20206;-56
2022/01/25 11:20:59;;;;;;;44.40;23.05;;;;;;;;;;5034178;28;20256;-57
2022/01/25 11:23:26;;;;;;;47.58;24.33;;;;;;;;;;5033603;28;20226;-57
2022/01/25 11:25:56;;;;;;;43.75;21.92;;;;;;;;;;5033698;28;20206;-58
2022/01/25 11:28:24;;;;;;;41.90;22.38;;;;;;;;;;5033161;28;20260;-57
2022/01/25 11:30:52;;;;;;;46.40;23.52;;;;;;;;;;5033221;28;20660;-56
2022/01/25 11:33:20;;;;;;;37.17;20.95;;;;;;;;;;5033037;28;20225;-57
2022/01/25 11:35:48;;;;;;;36.45;21.48;;;;;;;;;;5033201;28;20229;-56
2022/01/25 11:38:16;;;;;;;41.15;23.77;;;;;;;;;;5033549;28;20209;-57
2022/01/25 11:40:46;;;;;;;40.50;22.27;;;;;;;;;;5033656;28;20206;-57
2022/01/25 11:43:16;;;;;;;37.90;21.73;;;;;;;;;;5033934;28;20225;-58
2022/01/25 11:45:45;;;;;;;34.83;19.80;;;;;;;;;;5033347;28;20213;-58
2022/01/25 11:48:12;;;;;;;47.78;22.45;;;;;;;;;;5033460;28;20202;-56
2022/01/25 11:50:41;;;;;;;43.33;22.10;;;;;;;;;;5032904;28;20222;-57
2022/01/25 11:53:09;;;;;;;42.22;22.63;;;;;;;;;;5032963;28;20245;-58
2022/01/25 11:55:38;;;;;;;51.30;26.25;;;;;;;;;;5033847;28;20578;-55
2022/01/25 11:58:06;;;;;;;44.22;22.50;;;;;;;;;;5032541;28;20214;-55
2022/01/25 12:00:39;;;;;;;48.08;24.13;;;;;;;;;;5032779;28;20198;-57
2022/01/25 12:03:21;;;;;;;44.92;22.27;;;;;;;;;;5033298;28;20257;-56
2022/01/25 12:05:56;;;;;;;42.63;23.73;;;;;;;;;;5033085;28;20190;-56
2022/01/25 12:08:28;;;;;;;44.20;23.30;;;;;;;;;;5033248;28;20241;-57
2022/01/25 12:11:05;;;;;;;50.90;24.73;;;;;;;;;;5033406;28;20214;-57
2022/01/25 12:13:33;;;;;;;39.45;20.00;;;;;;;;;;5033174;28;20218;-57
2022/01/25 12:16:19;;;;;;;45.63;23.30;;;;;;;;;;5032755;28;20203;-56
2022/01/25 12:18:55;;;;;;;48.15;21.60;;;;;;;;;;5032815;28;20206;-56
2022/01/25 12:21:56;;;;;;;43.42;20.67;;;;;;;;;;5032607;28;20213;-56
2022/01/25 12:24:27;;;;;;;44.05;22.30;;;;;;;;;;4971680;28;20767;-55
2022/01/25 12:26:58;;;;;;;41.50;23.05;;;;;;;;;;4972840;28;20291;-56
2022/01/25 12:29:32;;;;;;;41.42;23.02;;;;;;;;;;5004581;28;20310;-56
2022/01/25 12:32:14;;;;;;;41.58;23.33;;;;;;;;;;5036898;28;20206;-56
2022/01/25 12:34:56;;;;;;;47.90;23.92;;;;;;;;;;5036944;28;20217;-56
2022/01/25 12:37:44;;;;;;;39.67;21.40;;;;;;;;;;5036514;28;20201;-56
2022/01/25 12:40:29;;;;;;;45.38;22.45;;;;;;;;;;5032084;28;20206;-56
2022/01/25 12:42:58;;;;;;;37.10;21.15;;;;;;;;;;5036896;28;20222;-56
2022/01/25 12:45:28;;;;;;;38.00;21.10;;;;;;;;;;5036591;28;20206;-55
2022/01/25 12:47:56;;;;;;;38.13;21.83;;;;;;;;;;5036600;28;20206;-56
2022/01/25 12:50:23;;;;;;;39.55;22.33;;;;;;;;;;5036404;28;20619;-56
2022/01/25 12:52:51;;;;;;;44.75;22.63;;;;;;;;;;5037053;28;20226;-56
2022/01/25 12:55:23;;;;;;;41.33;21.40;;;;;;;;;;5036521;28;20202;-56
2022/01/25 12:57:52;;;;;;;40.40;20.70;;;;;;;;;;5036134;28;20190;-56
2022/01/25 13:00:20;;;;;;;42.25;21.13;;;;;;;;;;5035945;28;20662;-56
2022/01/25 13:02:48;;;;;;;41.30;21.38;;;;;;;;;;5036082;28;20229;-57
2022/01/25 13:05:15;;;;;;;38.05;19.70;;;;;;;;;;5036262;28;20206;-57
2022/01/25 13:07:43;;;;;;;31.48;18.95;;;;;;;;;;5035909;28;20689;-56
2022/01/25 13:10:12;;;;;;;33.60;19.70;;;4.30;99.90;;;;;;5036539;28;20276;-56
2022/01/25 13:12:55;;;;;;;35.90;20.83;;;6.00;99.90;;;;;;5036078;28;20280;-56
2022/01/25 13:15:40;;;;;;;38.15;21.13;;;;;;;;;;5036817;28;20186;-56
2022/01/25 13:18:11;;;;;;;35.30;18.52;;;;;;;;;;5036523;28;20187;-56
2022/01/25 13:20:39;;;;;;;31.60;18.13;;;;;;;;;;5036287;28;20269;-56
2022/01/25 13:23:07;;;;;;;33.63;18.23;;;;;;;;;;5036102;28;20258;-56
2022/01/25 13:25:53;;;;;;;31.95;19.70;;;;;;;;;;5035967;28;20214;-56
2022/01/25 13:28:34;;;;;;;34.38;19.10;;;;;;;;;;5036751;28;20605;-56
2022/01/25 13:31:07;;;;;;;34.30;20.23;;;;;;;;;;5036469;28;20206;-57
2022/01/25 13:33:34;;;;;;;33.03;19.63;;;;;;;;;;5036278;28;20226;-56
2022/01/25 13:36:02;;;;;;;34.10;18.60;;;;;;;;;;5036105;28;20213;-56
2022/01/25 13:38:32;;;;;;;36.85;19.55;;;;;;;;;;5036433;28;20206;-56
2022/01/25 13:41:15;;;;;;;34.55;18.70;;;;;;;;;;5035481;28;20194;-56
2022/01/25 13:46:30;;;;;;;34.92;20.58;;;;;;;;;;5035246;28;20181;-56
2022/01/25 13:48:59;;;;;;;35.83;18.45;;;;;;;;;;5035223;28;20209;-55
2022/01/25 13:51:27;;;;;;;31.63;19.67;;;;;;;;;;5035792;28;20299;-56
2022/01/25 13:53:56;;;;;;;39.00;20.13;;;5.90;99.90;;;;;;5035506;28;20237;-56
2022/01/25 13:56:25;;;;;;;38.15;17.17;;;5.90;99.90;;;;;;5035436;28;20199;-57
2022/01/25 13:58:53;;;;;;;29.92;17.05;;;5.90;99.90;;;;;;5035123;28;20209;-56
2022/01/25 14:01:22;;;;;;;31.08;18.40;;;5.80;99.90;;;;;;5035536;28;20199;-56
2022/01/25 14:03:56;;;;;;;35.70;20.30;;;5.80;99.90;;;;;;5035501;28;20222;-56
2022/01/25 14:06:25;;;;;;;34.97;19.67;;;5.70;99.90;;;;;;5036303;28;20187;-56
2022/01/25 14:08:53;;;;;;;33.38;19.42;;;5.70;99.90;;;;;;5036932;28;20215;-56
2022/01/25 14:11:27;;;;;;;28.65;15.65;;;5.70;99.90;;;;;;5036044;28;20218;-56
2022/01/25 14:24:55;;;;;;;35.25;19.27;;;5.50;99.90;;;;;;5034442;28;20247;-57
2022/01/25 14:27:26;;;;;;;30.73;18.67;;;5.50;99.90;;;;;;5034539;28;20203;-57
2022/01/25 14:29:54;;;;;;;40.72;19.33;;;5.50;99.90;;;;;;5034030;28;20249;-56
2022/01/25 14:32:32;;;;;;;37.65;18.73;;;5.40;99.90;;;;;;5034996;28;20207;-55
2022/01/25 14:35:09;;;;;;;32.17;17.95;;;5.40;99.90;;;;;;5034470;28;20202;-57
2022/01/25 14:37:45;;;;;;;34.63;19.10;;;5.40;99.90;;;;;;5034645;28;20228;-57
2022/01/25 14:40:14;;;;;;;38.03;18.85;;;5.30;99.90;;;;;;5035263;28;20202;-57
2022/01/25 14:42:44;;;;;;;37.40;20.58;;;5.40;99.90;;;;;;5034632;28;20249;-58
2022/01/25 14:45:15;;;;;;;32.47;18.00;;;5.40;99.90;;;;;;5034788;28;20202;-57
2022/01/25 14:47:46;;;;;;;34.95;18.80;;;5.40;99.90;;;;;;5034643;28;20646;-57
2022/01/25 14:50:20;;;;;;;33.10;17.17;;;5.40;99.90;;;;;;5033966;28;20187;-56
2022/01/25 14:53:05;;;;;;;33.42;17.60;;;5.40;99.90;;;;;;5033277;28;20229;-57
2022/01/25 14:55:34;;;;;;;32.55;17.88;;;5.40;99.90;;;;;;5034274;28;20556;-55
2022/01/25 14:58:20;;;;;;;32.35;17.55;;;5.30;99.90;;;;;;5034086;28;20232;-57
2022/01/25 15:00:48;;;;;;;33.63;18.65;;;5.30;99.90;;;;;;5034104;28;20191;-57
2022/01/25 15:03:16;;;;;;;33.30;17.77;;;5.20;99.90;;;;;;5033589;28;20229;-57
2022/01/25 15:05:46;;;;;;;33.38;18.33;;;5.20;99.90;;;;;;5034139;28;20207;-56
2022/01/25 15:08:13;;;;;;;28.35;16.75;;;5.10;99.90;;;;;;5033692;28;20309;-57
2022/01/25 15:10:44;;;;;;;38.63;19.52;;;5.10;99.90;;;;;;5033701;28;20700;-57
2022/01/25 15:13:11;;;;;;;37.80;20.85;;;5.10;99.90;;;;;;5033868;28;20319;-56
2022/01/25 15:15:55;;;;;;;31.15;18.88;;;5.00;99.90;;;;;;5033291;28;20208;-56
2022/01/25 15:18:23;;;;;;;38.15;19.33;;;5.00;99.90;;;;;;5033558;28;20197;-56
2022/01/25 15:20:51;;;;;;;38.13;18.08;;;4.90;99.90;;;;;;5034545;28;20232;-56
2022/01/25 15:23:21;;;;;;;34.25;17.42;;;4.90;99.90;;;;;;5033091;28;20234;-56
2022/01/25 15:25:52;;;;;;;36.85;19.25;;;4.90;99.90;;;;;;5033830;28;20210;-56